createdAt,value
2022-11-18T00:00:58.948Z,26.9
2022-11-18T00:04:00.893Z,28.7
2022-11-18T00:07:02.912Z,31.3
2022-11-18T00:10:04.828Z,31.1
2022-11-18T00:13:06.787Z,24.8
2022-11-18T00:16:08.748Z,38.8
2022-11-18T00:19:10.713Z,28.4
2022-11-18T00:22:12.686Z,34.8
2022-11-18T00:25:14.639Z,38
2022-11-18T00:28:16.606Z,38.1
2022-11-18T00:31:18.551Z,28.8
2022-11-18T00:34:20.517Z,32.2
2022-11-18T00:37:22.483Z,33
2022-11-18T00:40:24.505Z,28.7
2022-11-18T00:43:26.512Z,36.3
2022-11-18T00:46:28.386Z,26.5
2022-11-18T00:49:30.350Z,24.6
2022-11-18T00:52:32.317Z,21.9
2022-11-18T00:55:34.270Z,22.2
2022-11-18T00:58:36.230Z,22.7
2022-11-18T01:01:38.259Z,25.8
2022-11-18T01:04:40.152Z,20.8
2022-11-18T01:07:42.144Z,29.6
2022-11-18T01:10:44.077Z,33
2022-11-18T01:13:46.026Z,30.7
2022-11-18T01:16:47.984Z,29.6
2022-11-18T01:19:49.991Z,26.8
2022-11-18T01:22:51.920Z,25.8
2022-11-18T01:25:53.995Z,25.2
2022-11-18T01:28:55.858Z,24.2
2022-11-18T01:32:22.510Z,27.4
2022-11-18T01:34:59.771Z,26.4
2022-11-18T01:38:01.725Z,28
2022-11-18T01:41:03.707Z,30.2
2022-11-18T01:44:05.672Z,26.6
2022-11-18T01:47:07.624Z,32.8
2022-11-18T01:50:09.590Z,25.4
2022-11-18T01:53:11.560Z,27.7
2022-11-18T01:56:13.514Z,31.5
2022-11-18T01:59:15.687Z,27.2
2022-11-18T02:02:17.462Z,27.9
2022-11-18T02:05:19.438Z,29.2
2022-11-18T02:08:21.402Z,32.9
2022-11-18T02:11:23.359Z,32.4
2022-11-18T02:14:25.315Z,32.1
2022-11-18T02:17:27.291Z,23.5
2022-11-18T02:20:29.249Z,30.2
2022-11-18T02:23:31.207Z,26.1
2022-11-18T02:26:33.175Z,29.7
2022-11-18T02:29:35.164Z,27.6
2022-11-18T02:32:37.122Z,30.6
2022-11-18T02:35:39.083Z,24.5
2022-11-18T02:38:41.028Z,23.4
2022-11-18T02:41:43.113Z,26.2
2022-11-18T02:44:44.968Z,30.9
2022-11-18T02:47:46.930Z,31.3
2022-11-18T02:50:48.896Z,34.4
2022-11-18T02:53:50.880Z,24.6
2022-11-18T02:56:52.862Z,25.1
2022-11-18T02:59:54.834Z,21.1
2022-11-18T03:02:56.799Z,31.6
2022-11-18T03:05:58.763Z,33.5
2022-11-18T03:09:00.702Z,33.8
2022-11-18T03:12:02.680Z,25.3
2022-11-18T03:15:04.628Z,30.7
2022-11-18T03:18:06.580Z,34.4
2022-11-18T03:21:08.550Z,33.6
2022-11-18T03:24:10.528Z,30.5
2022-11-18T03:27:12.512Z,40.4
2022-11-18T03:30:14.438Z,30.9
2022-11-18T03:33:16.414Z,29.3
2022-11-18T03:36:18.364Z,36.2
2022-11-18T03:39:20.350Z,37.9
2022-11-18T03:42:22.283Z,31.8
2022-11-18T03:45:24.262Z,33
2022-11-18T03:48:26.227Z,31.5
2022-11-18T03:51:28.176Z,27.2
2022-11-18T03:54:30.166Z,32.9
2022-11-18T03:57:32.128Z,34.1
2022-11-18T04:00:34.090Z,31.2
2022-11-18T04:03:36.038Z,35.5
2022-11-18T04:06:38.018Z,29.6
2022-11-18T04:09:39.979Z,32.8
2022-11-18T04:12:41.967Z,35.6
2022-11-18T04:15:43.961Z,26.9
2022-11-18T04:18:45.904Z,25
2022-11-18T04:21:47.880Z,21.2
2022-11-18T04:24:49.832Z,25.4
2022-11-18T04:27:51.793Z,24.3
2022-11-18T04:30:53.755Z,20.7
2022-11-18T04:33:55.714Z,18.6
2022-11-18T04:36:57.671Z,19.2
2022-11-18T04:39:59.648Z,22.7
2022-11-18T04:43:01.620Z,18.6
2022-11-18T04:46:03.576Z,19.4
2022-11-18T04:49:05.549Z,19.9
2022-11-18T04:52:07.520Z,16.6
2022-11-18T04:55:09.512Z,17.8
2022-11-18T04:58:11.461Z,20.3
2022-11-18T05:01:13.523Z,15.2
2022-11-18T05:04:15.400Z,19.5
2022-11-18T05:07:17.433Z,16.5
2022-11-18T05:10:19.311Z,12.8
2022-11-18T05:13:21.287Z,12.6
2022-11-18T05:16:26.397Z,14.9
2022-11-18T05:19:28.343Z,15
2022-11-18T05:22:30.340Z,15.8
2022-11-18T05:25:32.271Z,15.4
2022-11-18T05:28:34.249Z,15.8
2022-11-18T05:31:36.194Z,14.7
2022-11-18T05:34:38.170Z,18.4
2022-11-18T05:37:40.133Z,20
2022-11-18T05:40:42.092Z,13.8
2022-11-18T05:43:44.043Z,18.3
2022-11-18T05:46:46.028Z,12.5
2022-11-18T05:49:48.007Z,15.4
2022-11-18T05:52:49.961Z,11.3
2022-11-18T05:55:51.886Z,11.5
2022-11-18T05:58:53.874Z,12.9
2022-11-18T06:01:55.850Z,12.6
2022-11-18T06:04:57.789Z,15.8
2022-11-18T06:07:59.737Z,13.6
2022-11-18T06:11:01.703Z,14
2022-11-18T06:14:03.724Z,15.3
2022-11-18T06:17:05.671Z,14
2022-11-18T06:20:07.633Z,12.9
2022-11-18T06:23:09.593Z,15.8
2022-11-18T06:26:11.552Z,15.6
2022-11-18T06:29:13.510Z,16
2022-11-18T06:32:15.471Z,19.8
2022-11-18T06:35:17.451Z,15.8
2022-11-18T06:38:19.422Z,15.7
2022-11-18T06:41:21.378Z,15
2022-11-18T06:44:23.347Z,17.1
2022-11-18T06:47:25.311Z,12.2
2022-11-18T06:50:27.269Z,15.9
2022-11-18T06:53:29.236Z,13.5
2022-11-18T06:56:31.181Z,17.1
2022-11-18T06:59:33.147Z,18.6
2022-11-18T07:02:35.100Z,16.6
2022-11-18T07:05:37.082Z,17.7
2022-11-18T07:08:39.029Z,20.4
2022-11-18T07:11:40.991Z,14.1
2022-11-18T07:14:42.950Z,24.3
2022-11-18T07:17:44.911Z,21.8
2022-11-18T07:20:46.885Z,24.7
2022-11-18T07:23:48.837Z,25.5
2022-11-18T07:26:50.784Z,24
2022-11-18T07:29:52.771Z,26.4
2022-11-18T07:32:54.828Z,20.3
2022-11-18T07:35:56.677Z,23.5
2022-11-18T07:38:58.643Z,30.5
2022-11-18T07:42:00.608Z,28.9
2022-11-18T07:45:02.581Z,26.2
2022-11-18T07:48:04.541Z,24.2
2022-11-18T07:51:06.497Z,27.1
2022-11-18T07:54:08.641Z,27.5
2022-11-18T07:57:10.612Z,22
2022-11-18T08:00:12.633Z,24.7
2022-11-18T08:03:14.703Z,24.2
2022-11-18T08:06:16.584Z,28.4
2022-11-18T08:09:18.815Z,31.4
2022-11-18T08:12:20.513Z,21.6
2022-11-18T08:15:22.488Z,32
2022-11-18T08:18:24.475Z,26
2022-11-18T08:21:26.404Z,33.1
2022-11-18T08:24:28.366Z,34
2022-11-18T08:27:30.344Z,25.9
2022-11-18T08:30:32.312Z,25.1
2022-11-18T08:33:34.283Z,29.6
2022-11-18T08:36:36.249Z,27.9
2022-11-18T08:39:38.271Z,31.8
2022-11-18T08:42:40.233Z,28.7
2022-11-18T08:45:42.178Z,24.1
2022-11-18T08:48:44.162Z,20.6
2022-11-18T08:51:46.128Z,22.7
2022-11-18T08:54:48.084Z,21.1
2022-11-18T08:57:50.080Z,21
2022-11-18T09:00:52.024Z,25.9
2022-11-18T09:03:53.981Z,22.8
2022-11-18T09:06:55.974Z,20.3
2022-11-18T09:09:57.923Z,19.6
2022-11-18T09:13:18.368Z,20.7
2022-11-18T09:16:01.851Z,18.3
2022-11-18T09:19:18.428Z,16.5
2022-11-18T09:22:05.801Z,14
2022-11-18T09:25:07.745Z,14.6
2022-11-18T09:28:09.722Z,14.5
2022-11-18T09:31:11.682Z,16.6
2022-11-18T09:34:13.656Z,17
2022-11-18T09:37:15.614Z,13.5
2022-11-18T09:40:17.576Z,12.5
2022-11-18T09:43:19.643Z,14.4
2022-11-18T09:46:21.524Z,14.4
2022-11-18T09:49:23.488Z,11.7
2022-11-18T09:52:25.445Z,13.2
2022-11-18T09:55:27.405Z,13.9
2022-11-18T09:58:29.403Z,12.8
2022-11-18T10:01:31.437Z,11
2022-11-18T10:04:33.318Z,14.9
2022-11-18T10:07:35.375Z,13.2
2022-11-18T10:10:37.252Z,13.6
2022-11-18T10:13:39.207Z,9.9
2022-11-18T10:16:41.175Z,12
2022-11-18T10:19:43.131Z,10.3
2022-11-18T10:22:45.098Z,10.7
2022-11-18T10:25:47.061Z,10
2022-11-18T10:28:49.009Z,9
2022-11-18T10:31:50.979Z,11.6
2022-11-18T10:34:52.955Z,9.6
2022-11-18T10:38:07.098Z,6.9
2022-11-18T10:40:56.901Z,6
2022-11-18T10:43:58.867Z,9.3
2022-11-18T10:47:00.828Z,9
2022-11-18T10:50:02.784Z,6.1
2022-11-18T10:53:04.751Z,9.7
2022-11-18T10:56:06.711Z,7.6
2022-11-18T10:59:08.671Z,5
2022-11-18T11:02:10.679Z,5.5
2022-11-18T11:05:12.614Z,4.7
2022-11-18T11:08:29.428Z,4.4
2022-11-18T11:11:16.537Z,7.8
2022-11-18T11:14:18.750Z,3.8
2022-11-18T11:17:20.503Z,5.5
2022-11-18T11:20:22.442Z,4
2022-11-18T11:23:24.399Z,3.7
2022-11-18T11:29:28.378Z,3.6
2022-11-18T11:32:30.306Z,3.3
2022-11-18T11:35:32.257Z,5
2022-11-18T11:38:34.235Z,7.7
2022-11-18T11:41:36.211Z,5.7
2022-11-18T11:44:38.158Z,4.1
2022-11-18T11:47:40.167Z,3.7
2022-11-18T11:50:42.094Z,5
2022-11-18T11:53:44.073Z,5.9
2022-11-18T11:56:46.022Z,4.5
2022-11-18T11:59:47.995Z,4.6
2022-11-18T12:02:50.022Z,3
2022-11-18T12:05:51.917Z,4.4
2022-11-18T12:08:53.897Z,4.3
2022-11-18T12:11:55.857Z,2.2
2022-11-18T12:14:57.834Z,4.5
2022-11-18T12:17:59.798Z,2.3
2022-11-18T12:21:01.766Z,4.9
2022-11-18T12:24:03.743Z,3.4
2022-11-18T12:27:05.704Z,3.6
2022-11-18T12:30:07.659Z,4.5
2022-11-18T12:33:09.645Z,4.2
2022-11-18T12:36:11.629Z,6
2022-11-18T12:39:13.575Z,3.5
2022-11-18T12:42:15.551Z,3.7
2022-11-18T12:45:17.508Z,4
2022-11-18T12:48:22.952Z,4.5
2022-11-18T12:51:21.419Z,5.3
2022-11-18T12:54:23.401Z,4
2022-11-18T12:57:25.514Z,6.8
2022-11-18T13:00:27.375Z,7.2
2022-11-18T13:03:29.297Z,6.4
2022-11-18T13:06:31.260Z,4.7
2022-11-18T13:09:33.225Z,4.9
2022-11-18T13:12:35.192Z,3.3
2022-11-18T13:15:37.184Z,2.7
2022-11-18T13:18:39.126Z,3
2022-11-18T13:21:41.096Z,5
2022-11-18T13:24:43.058Z,4.5
2022-11-18T13:27:45.020Z,3.8
2022-11-18T13:30:46.991Z,7
2022-11-18T13:33:48.947Z,5.1
2022-11-18T13:36:50.898Z,6.6
2022-11-18T13:39:52.863Z,7
2022-11-18T13:42:54.828Z,3.8
2022-11-18T13:45:56.805Z,6.6
2022-11-18T13:48:58.786Z,3.8
2022-11-18T13:52:00.734Z,5
2022-11-18T13:55:02.687Z,5.2
2022-11-18T13:58:04.656Z,5.7
2022-11-18T14:01:06.636Z,5.6
2022-11-18T14:04:08.586Z,4.5
2022-11-18T14:07:10.611Z,2.9
2022-11-18T14:10:12.529Z,1.7
2022-11-18T14:13:14.515Z,2.2
2022-11-18T14:16:16.465Z,2.6
2022-11-18T14:19:18.608Z,2.9
2022-11-18T14:22:20.402Z,2.2
2022-11-18T14:25:22.363Z,2.5
2022-11-18T14:28:24.315Z,2.6
2022-11-18T14:31:26.277Z,3.3
2022-11-18T14:34:28.237Z,4.6
2022-11-18T14:37:30.220Z,5.3
2022-11-18T14:40:32.188Z,3.9
2022-11-18T14:43:34.136Z,4.6
2022-11-18T14:46:36.101Z,4.1
2022-11-18T14:49:38.079Z,4.3
2022-11-18T14:52:40.050Z,3.7
2022-11-18T14:55:42.111Z,3.1
2022-11-18T14:58:44.081Z,5.9
2022-11-18T15:01:46.121Z,2.7
2022-11-18T15:04:48.006Z,3.2
2022-11-18T15:07:50.066Z,3.7
2022-11-18T15:10:51.929Z,5.2
2022-11-18T15:13:53.898Z,3.4
2022-11-18T15:16:55.871Z,3.5
2022-11-18T15:19:57.850Z,3.5
2022-11-18T15:22:59.787Z,3.5
2022-11-18T15:26:01.732Z,3.5
2022-11-18T15:29:03.700Z,5.2
2022-11-18T15:32:05.691Z,5.5
2022-11-18T15:35:07.628Z,4.2
2022-11-18T15:38:09.582Z,3.9
2022-11-18T15:41:11.530Z,4.7
2022-11-18T15:44:13.494Z,6.7
2022-11-18T15:47:15.485Z,5.6
2022-11-18T15:50:17.462Z,5.6
2022-11-18T15:53:19.385Z,5.3
2022-11-18T15:56:21.359Z,5.3
2022-11-18T15:59:23.403Z,4.9
2022-11-18T16:02:25.450Z,5.4
2022-11-18T16:05:27.311Z,4.1
2022-11-18T16:08:29.268Z,3.6
2022-11-18T16:11:31.243Z,6
2022-11-18T16:14:33.217Z,4.6
2022-11-18T16:17:35.226Z,4.7
2022-11-18T16:20:37.160Z,5.4
2022-11-18T16:23:39.128Z,4.7
2022-11-18T16:26:41.145Z,5.3
2022-11-18T16:29:43.103Z,5.1
2022-11-18T16:32:45.041Z,4.7
2022-11-18T16:35:47.026Z,4.9
2022-11-18T16:38:48.976Z,7.6
2022-11-18T16:41:50.921Z,6.4
2022-11-18T16:44:52.880Z,6
2022-11-18T16:47:54.832Z,7.1
2022-11-18T16:50:56.797Z,5.2
2022-11-18T16:53:58.788Z,6.2
2022-11-18T16:57:00.737Z,3.4
2022-11-18T17:00:02.674Z,6.9
2022-11-18T17:03:04.637Z,6.7
2022-11-18T17:06:06.606Z,7.1
2022-11-18T17:09:08.612Z,4.1
2022-11-18T17:12:10.574Z,4.7
2022-11-18T17:15:12.527Z,6.2
2022-11-18T17:18:14.497Z,7.4
2022-11-18T17:21:16.468Z,6.9
2022-11-18T17:24:18.620Z,5.9
2022-11-18T17:27:20.377Z,4.6
2022-11-18T17:30:22.345Z,5.9
2022-11-18T17:33:24.338Z,5.9
2022-11-18T17:36:26.282Z,6
2022-11-18T17:39:28.234Z,4.3
2022-11-18T17:42:30.199Z,6
2022-11-18T17:45:32.137Z,5.5
2022-11-18T17:48:34.100Z,7.5
2022-11-18T17:51:36.083Z,4
2022-11-18T17:54:38.021Z,6.2
2022-11-18T17:57:40.022Z,7
2022-11-18T18:00:41.973Z,6.1
2022-11-18T18:03:43.942Z,8.9
2022-11-18T18:06:46.068Z,6.4
2022-11-18T18:09:47.853Z,6.4
2022-11-18T18:12:49.832Z,6.1
2022-11-18T18:15:51.802Z,7.8
2022-11-18T18:18:53.776Z,8.1
2022-11-18T18:21:55.726Z,7.3
2022-11-18T18:24:57.695Z,8.3
2022-11-18T18:27:59.814Z,4.7
2022-11-18T18:31:01.648Z,5.5
2022-11-18T18:34:03.620Z,5.6
2022-11-18T18:37:05.566Z,7.8
2022-11-18T18:40:07.538Z,6.5
2022-11-18T18:43:09.491Z,8.8
2022-11-18T18:46:11.452Z,7.7
2022-11-18T18:49:13.428Z,5.9
2022-11-18T18:52:15.375Z,6.6
2022-11-18T18:55:17.340Z,7.1
2022-11-18T18:58:19.342Z,8.7
2022-11-18T19:01:21.330Z,11.1
2022-11-18T19:04:23.226Z,9.5
2022-11-18T19:07:25.263Z,12
2022-11-18T19:10:27.166Z,8.4
2022-11-18T19:13:29.115Z,7.1
2022-11-18T19:16:31.085Z,8
2022-11-18T19:19:33.035Z,10.8
2022-11-18T19:22:34.993Z,14.1
2022-11-18T19:25:36.978Z,11
2022-11-18T19:28:38.948Z,8.4
2022-11-18T19:31:40.986Z,9.2
2022-11-18T19:34:42.867Z,11.3
2022-11-18T19:37:44.825Z,10.9
2022-11-18T19:40:46.789Z,9.8
2022-11-18T19:43:48.765Z,9.4
2022-11-18T19:46:50.748Z,9.9
2022-11-18T19:49:52.678Z,13.7
2022-11-18T19:52:54.664Z,9.2
2022-11-18T19:55:56.612Z,8.1
2022-11-18T19:58:58.626Z,9.6
2022-11-18T20:02:00.563Z,9.1
2022-11-18T20:05:02.575Z,7.6
2022-11-18T20:08:04.488Z,8.3
2022-11-18T20:11:09.160Z,10.9
2022-11-18T20:14:08.370Z,9.7
2022-11-18T20:17:10.337Z,10.5
2022-11-18T20:20:12.308Z,10.6
2022-11-18T20:23:14.286Z,10.7
2022-11-18T20:26:16.245Z,11.5
2022-11-18T20:29:18.527Z,8
2022-11-18T20:32:20.180Z,11.5
2022-11-18T20:35:22.096Z,10.5
2022-11-18T20:38:24.068Z,12.7
2022-11-18T20:41:26.081Z,8.7
2022-11-18T20:44:28.016Z,8.5
2022-11-18T20:47:29.962Z,7.3
2022-11-18T20:50:31.934Z,8.4
2022-11-18T20:53:33.898Z,8.2
2022-11-18T20:56:35.833Z,10.3
2022-11-18T20:59:37.805Z,8.8
2022-11-18T21:02:39.774Z,6.5
2022-11-18T21:05:41.744Z,11.7
2022-11-18T21:08:43.706Z,9.2
2022-11-18T21:11:45.664Z,11.3
2022-11-18T21:14:47.633Z,9.5
2022-11-18T21:17:49.580Z,9.9
2022-11-18T21:20:51.602Z,7.2
2022-11-18T21:23:53.564Z,9.5
2022-11-18T21:26:55.503Z,7
2022-11-18T21:29:57.637Z,6.9
2022-11-18T21:32:59.547Z,9.5
2022-11-18T21:36:01.428Z,11
2022-11-18T21:39:03.387Z,10.3
2022-11-18T21:42:05.358Z,9.1
2022-11-18T21:45:07.285Z,24.4
2022-11-18T21:48:09.286Z,19.1
2022-11-18T21:51:11.287Z,14.1
2022-11-18T21:54:13.181Z,11.6
2022-11-18T21:57:15.160Z,10.6
2022-11-18T22:00:17.096Z,9.5
2022-11-18T22:03:19.052Z,8.5
2022-11-18T22:06:21.004Z,11.1
2022-11-18T22:09:23.089Z,10.6
2022-11-18T22:12:25.023Z,10.7
2022-11-18T22:15:26.958Z,10.5
2022-11-18T22:18:28.948Z,6.9
2022-11-18T22:21:30.856Z,10.5
2022-11-18T22:24:32.821Z,11.2
2022-11-18T22:27:34.762Z,6.7
2022-11-18T22:30:36.726Z,8.2
2022-11-18T22:33:38.678Z,8.1
2022-11-18T22:36:40.701Z,8.9
2022-11-18T22:39:42.608Z,13.2
2022-11-18T22:42:44.581Z,11.3
2022-11-18T22:45:46.524Z,13.2
2022-11-18T22:48:48.467Z,12.1
2022-11-18T22:51:50.476Z,13.8
2022-11-18T22:54:52.435Z,17.1
2022-11-18T22:57:54.390Z,14.9
2022-11-18T23:00:56.353Z,11.3
2022-11-18T23:03:58.285Z,10.5
2022-11-18T23:07:00.326Z,10.3
2022-11-18T23:10:02.267Z,8.6
2022-11-18T23:13:04.348Z,8.7
2022-11-18T23:16:06.177Z,8
2022-11-18T23:19:08.098Z,7.6
2022-11-18T23:22:10.064Z,8.4
2022-11-18T23:25:12.000Z,6.6
2022-11-18T23:28:13.964Z,6.2
2022-11-18T23:31:15.936Z,6.5
2022-11-18T23:34:17.962Z,5.2
2022-11-18T23:37:19.953Z,6.4
2022-11-18T23:40:21.868Z,6.2
2022-11-18T23:43:23.845Z,8.1
2022-11-18T23:46:25.790Z,8.5
2022-11-18T23:49:27.746Z,5.9
2022-11-18T23:52:29.736Z,6.5
2022-11-18T23:55:31.709Z,6.9
2022-11-18T23:58:33.667Z,6.5
